Time;durP1;ratioP1;P1;durP2;ratioP2;P2;SDS_P1;SDS_P2;PMS_P1;PMS_P2;Temp;Humidity;BMP_temperature;BMP_pressure;BME280_temperature;BME280_humidity;BME280_pressure;Samples;Min_cycle;Max_cycle;Signal;HPM_P1;HPM_P2
2023/02/21 02:14:52;;;;;;;32.83;17.50;;;;;;;8.33;100.00;100871.25;5022015;28;20210;-72
2023/02/21 02:17:31;;;;;;;33.20;19.47;;;;;;;8.35;100.00;100879.16;5006765;28;20214;-72
2023/02/21 02:20:39;;;;;;;36.70;20.47;;;;;;;8.38;100.00;100873.69;5024937;28;20795;-73
2023/02/21 02:23:28;;;;;;;35.20;20.07;;;;;;;8.35;100.00;100869.41;5011145;28;20206;-71
2023/02/21 02:26:26;;;;;;;39.97;21.20;;;;;;;8.36;100.00;100870.25;5028365;28;20422;-73
2023/02/21 02:29:09;;;;;;;42.03;21.50;;;;;;;8.38;100.00;100867.53;5025524;28;20229;-73
2023/02/21 02:31:45;;;;;;;36.50;20.37;;;;;;;8.39;100.00;100871.91;5020841;28;20201;-75
2023/02/21 02:34:49;;;;;;;38.97;22.37;;;;;;;8.38;100.00;100884.31;5020614;28;20843;-73
2023/02/21 02:37:21;;;;;;;34.30;18.83;;;;;;;8.40;100.00;100882.44;5017877;28;20198;-73
2023/02/21 02:39:55;;;;;;;31.77;18.87;;;;;;;8.42;100.00;100882.38;5024525;28;20249;-73
2023/02/21 02:42:35;;;;;;;33.87;19.73;;;;;;;8.41;100.00;100885.97;5020606;28;20230;-73
2023/02/21 02:45:08;;;;;;;33.87;18.83;;;;;;;8.42;100.00;100882.38;5022537;28;20565;-71
2023/02/21 02:47:38;;;;;;;29.27;17.10;;;;;;;8.42;100.00;100885.03;5024494;28;20209;-72
2023/02/21 02:50:11;;;;;;;33.93;18.73;;;;;;;8.39;100.00;100882.50;5025466;28;20240;-73
2023/02/21 02:52:37;;;;;;;29.33;16.50;;;;;;;8.36;100.00;100875.56;5021924;28;20209;-73
2023/02/21 02:55:20;;;;;;;31.17;17.13;;;;;;;8.40;100.00;100870.97;5024332;28;20198;-73
2023/02/21 02:57:47;;;;;;;28.60;17.20;;;;;;;8.39;100.00;100879.88;5024854;28;20202;-73
2023/02/21 03:00:15;;;;;;;26.37;16.00;;;;;;;8.41;100.00;100873.53;5019789;28;20226;-74
2023/02/21 03:02:54;;;;;;;30.17;17.70;;;;;;;8.41;100.00;100878.84;5026058;28;20222;-73
2023/02/21 03:05:40;;;;;;;31.30;17.47;;;;;;;8.44;100.00;100878.66;5016927;28;20211;-73
2023/02/21 03:08:18;;;;;;;30.37;17.13;;;;;;;8.41;100.00;100885.97;5021749;28;20202;-73
2023/02/21 03:10:47;;;;;;;24.83;14.83;;;;;;;8.42;100.00;100879.72;5023002;28;20724;-71
2023/02/21 03:13:21;;;;;;;30.83;17.90;;;;;;;8.42;100.00;100885.03;5023998;28;20206;-74
2023/02/21 03:15:51;;;;;;;31.93;17.80;;;;;;;8.41;100.00;100884.16;5024477;28;20198;-72
2023/02/21 03:18:24;;;;;;;32.17;17.27;;;;;;;8.42;100.00;100872.56;5024047;28;20224;-71
2023/02/21 03:20:56;;;;;;;33.80;17.87;;;;;;;8.43;100.00;100878.75;5020602;28;20253;-73
2023/02/21 03:23:26;;;;;;;33.20;18.20;;;;;;;8.45;100.00;100876.88;5019398;28;20688;-71
2023/02/21 03:25:54;;;;;;;33.80;18.10;;;;;;;8.46;100.00;100873.28;5019164;28;20213;-74
2023/02/21 03:28:21;;;;;;;33.93;18.23;;;;;;;8.44;100.00;100868.06;5021130;28;20203;-74
2023/02/21 03:30:52;;;;;;;32.73;18.17;;;;;;;8.45;100.00;100869.78;5015780;28;20202;-74
2023/02/21 03:33:18;;;;;;;32.67;18.33;;;;;;;8.42;100.00;100854.00;5020828;28;20206;-74
2023/02/21 03:35:45;;;;;;;34.77;18.63;;;;;;;8.42;100.00;100861.13;5019435;28;20202;-74
2023/02/21 03:38:13;;;;;;;32.10;17.17;;;;;;;8.41;100.00;100868.25;5020290;28;20207;-74
2023/02/21 03:40:39;;;;;;;34.23;18.47;;;;;;;8.40;100.00;100855.91;5022576;28;20229;-73
2023/02/21 03:43:06;;;;;;;30.90;15.90;;;;;;;8.41;100.00;100852.31;5020589;28;20260;-73
2023/02/21 03:45:33;;;;;;;33.70;18.20;;;;;;;8.40;100.00;100855.91;5022043;28;20617;-73
2023/02/21 03:47:59;;;;;;;32.67;18.27;;;;;;;8.39;100.00;100854.19;5021449;28;20209;-73
2023/02/21 03:50:26;;;;;;;31.17;18.03;;;;;;;8.38;100.00;100849.81;5019830;28;20231;-73
2023/02/21 03:52:52;;;;;;;28.40;16.27;;;;;;;8.40;100.00;100850.59;5018458;28;20205;-73
2023/02/21 03:55:20;;;;;;;32.23;18.37;;;;;;;8.39;100.00;100842.72;5016432;28;20215;-74
2023/02/21 03:57:47;;;;;;;32.90;17.50;;;;;;;8.42;100.00;100848.69;5019589;28;20209;-73
2023/02/21 04:00:14;;;;;;;33.70;18.60;;;;;;;8.41;100.00;100847.00;5014458;28;20227;-74
2023/02/21 04:02:41;;;;;;;36.83;18.57;;;;;;;8.42;100.00;100847.88;5019644;28;20241;-72
2023/02/21 04:05:08;;;;;;;39.33;20.17;;;;;;;8.42;100.00;100839.91;5020152;28;20207;-73
2023/02/21 04:07:34;;;;;;;41.30;19.70;;;;;;;8.42;100.00;100840.72;5019612;28;20211;-74
2023/02/21 04:10:00;;;;;;;41.53;19.73;;;;;;;8.39;100.00;100840.06;5022164;28;20297;-74
2023/02/21 04:12:28;;;;;;;37.37;19.77;;;;;;;8.35;100.00;100837.56;5017836;28;20206;-73
2023/02/21 04:14:57;;;;;;;33.23;19.30;;;;;;;8.39;100.00;100845.34;5020467;28;20236;-73
2023/02/21 04:17:23;;;;;;;40.17;20.47;;;;;;;8.41;100.00;100841.69;5016176;28;20210;-75
2023/02/21 04:19:50;;;;;;;41.53;20.97;;;;;;;8.42;100.00;100834.59;5018193;28;20236;-71
2023/02/21 04:22:17;;;;;;;37.87;21.00;;;;;;;8.44;100.00;100840.66;5014419;28;20623;-74
2023/02/21 04:24:43;;;;;;;38.87;20.30;;;;;;;8.44;100.00;100846.81;5018752;28;20216;-76
2023/02/21 04:27:10;;;;;;;36.37;20.37;;;;;;;8.45;100.00;100842.38;5017886;28;20716;-73
2023/02/21 04:29:37;;;;;;;42.30;21.77;;;;;;;8.45;100.00;100831.75;5015712;28;20223;-74
2023/02/21 04:32:04;;;;;;;42.07;21.07;;;;;;;8.49;100.00;100839.50;5019532;28;20211;-73
2023/02/21 04:34:31;;;;;;;42.40;21.80;;;;;;;8.49;100.00;100838.63;5019363;28;20209;-74
2023/02/21 04:36:57;;;;;;;45.67;22.67;;;;;;;8.46;100.00;100833.47;5019208;28;20209;-73
2023/02/21 04:39:24;;;;;;;46.33;22.57;;;;;;;8.46;100.00;100823.72;5019035;28;20273;-73
2023/02/21 04:41:50;;;;;;;52.13;24.17;;;;;;;8.48;100.00;100828.94;5021844;28;20225;-73
2023/02/21 04:44:17;;;;;;;48.27;23.97;;;;;;;8.46;100.00;100823.72;5021368;28;20689;-73
2023/02/21 04:46:45;;;;;;;46.73;25.77;;;;;;;8.46;100.00;100817.53;5026701;28;20253;-75
2023/02/21 04:49:12;;;;;;;46.33;23.60;;;;;;;8.48;100.00;100818.31;5022636;28;20233;-73
2023/02/21 04:51:39;;;;;;;48.30;22.87;;;;;;;8.50;100.00;100824.41;5025410;28;20221;-74
2023/02/21 04:54:06;;;;;;;47.27;23.07;;;;;;;8.50;100.00;100825.28;5027781;28;20202;-74
2023/02/21 04:56:33;;;;;;;47.43;23.90;;;;;;;8.49;100.00;100818.25;5021346;28;20669;-74
2023/02/21 04:58:59;;;;;;;45.23;22.60;;;;;;;8.52;100.00;100811.94;5021133;28;20721;-72
2023/02/21 05:01:28;;;;;;;52.07;24.90;;;;;;;8.52;100.00;100817.25;5019848;28;20203;-74
2023/02/21 05:03:55;;;;;;;50.80;25.60;;;;;;;8.50;100.00;100814.66;5019268;28;20209;-73
2023/02/21 05:06:24;;;;;;;52.73;23.00;;;;;;;8.52;100.00;100803.97;5022578;28;20203;-73
2023/02/21 05:08:51;;;;;;;44.23;23.07;;;;;;;8.54;100.00;100812.72;5023207;28;20244;-74
2023/02/21 05:11:19;;;;;;;50.70;24.90;;;;;;;8.54;100.00;100807.41;5015194;28;20206;-72
2023/02/21 05:13:46;;;;;;;46.17;23.90;;;;;;;8.54;100.00;100810.06;5021371;28;20206;-75
2023/02/21 05:16:13;;;;;;;43.77;22.37;;;;;;;8.56;100.00;100824.13;5019571;28;20214;-73
2023/02/21 05:18:42;;;;;;;45.90;23.07;;;;;;;8.56;100.00;100824.13;5023143;28;20213;-73
2023/02/21 05:21:10;;;;;;;48.20;23.67;;;;;;;8.58;100.00;100832.84;5018093;28;20957;-73
2023/02/21 05:23:38;;;;;;;42.53;23.20;;;;;;;8.58;100.00;100830.22;5021446;28;20280;-74
2023/02/21 05:26:08;;;;;;;43.27;23.23;;;;;;;8.58;100.00;100835.50;5028271;28;20210;-73
2023/02/21 05:28:35;;;;;;;44.13;22.23;;;;;;;8.57;100.00;100832.00;5048952;22;20317;-75
2023/02/21 05:31:02;;;;;;;39.50;21.60;;;;;;;8.56;100.00;100835.59;5028837;28;20209;-75
2023/02/21 05:33:28;;;;;;;40.30;21.53;;;;;;;8.57;100.00;100841.75;5027222;28;20202;-75
2023/02/21 05:35:57;;;;;;;40.57;19.97;;;;;;;8.58;100.00;100835.50;5029014;28;20206;-75
2023/02/21 05:38:26;;;;;;;42.90;22.00;;;;;;;8.57;100.00;100837.31;5019877;28;20230;-76
2023/02/21 05:40:53;;;;;;;39.30;20.27;;;;;;;8.57;100.00;100837.31;5024256;28;20198;-75
2023/02/21 05:43:19;;;;;;;39.73;19.80;;;;;;;8.57;100.00;100839.97;5028686;28;20234;-74
2023/02/21 05:45:46;;;;;;;35.57;19.67;;;;;;;8.57;100.00;100831.13;5025210;28;20233;-75
2023/02/21 05:48:13;;;;;;;37.87;18.70;;;;;;;8.56;100.00;100838.25;5027697;28;20756;-75
2023/02/21 05:50:39;;;;;;;34.10;17.00;;;;;;;8.56;100.00;100845.34;5026122;28;20213;-74
2023/02/21 05:53:08;;;;;;;32.73;18.33;;;;;;;8.54;100.00;100837.47;5027446;28;20218;-75
2023/02/21 05:55:36;;;;;;;30.87;17.40;;;;;;;8.56;100.00;100840.03;5027842;28;20306;-75
2023/02/21 05:58:02;;;;;;;30.47;16.93;;;;;;;8.54;100.00;100837.47;5029805;28;20226;-75
2023/02/21 06:00:30;;;;;;;29.80;16.77;;;;;;;8.55;100.00;100846.28;5027336;28;20195;-75
2023/02/21 06:02:56;;;;;;;30.53;17.10;;;;;;;8.53;100.00;100845.50;5028766;28;20245;-74
2023/02/21 06:05:23;;;;;;;32.40;17.13;;;;;;;8.51;100.00;100837.63;5028166;28;20224;-75
2023/02/21 06:07:51;;;;;;;31.43;17.07;;;;;;;8.53;100.00;100848.16;5027534;28;20248;-74
2023/02/21 06:10:18;;;;;;;31.73;16.87;;;;;;;8.54;100.00;100852.53;5027677;28;20210;-74
2023/02/21 06:12:46;;;;;;;30.23;17.10;;;;;;;8.52;100.00;100851.75;5029299;28;20217;-74
2023/02/21 06:15:12;;;;;;;29.87;16.07;;;;;;;8.53;100.00;100854.31;5027439;28;20202;-74
2023/02/21 06:17:40;;;;;;;33.33;16.37;;;;;;;8.55;100.00;100855.09;5022514;28;20222;-71
2023/02/21 06:20:07;;;;;;;30.00;16.30;;;;;;;8.54;100.00;100853.38;5028295;28;20214;-71
2023/02/21 06:22:34;;;;;;;30.07;15.47;;;;;;;8.50;100.00;100846.53;5029021;28;20246;-71
2023/02/21 06:25:00;;;;;;;30.00;16.20;;;;;;;8.51;100.00;100852.69;5028786;28;20202;-71
2023/02/21 06:27:27;;;;;;;32.00;16.37;;;;;;;8.52;100.00;100857.06;5029051;28;20241;-71
2023/02/21 06:29:54;;;;;;;32.13;16.73;;;;;;;8.51;100.00;100850.03;5028201;28;20202;-71
2023/02/21 06:32:21;;;;;;;25.90;15.00;;;;;;;8.52;100.00;100849.09;5028951;28;20661;-71
2023/02/21 06:34:47;;;;;;;28.30;15.67;;;;;;;8.52;100.00;100855.25;5027822;28;20198;-71
2023/02/21 06:37:14;;;;;;;29.40;16.23;;;;;;;8.52;100.00;100849.09;5029205;28;20234;-76
2023/02/21 06:39:40;;;;;;;31.40;15.93;;;;;;;8.52;100.00;100851.75;5026790;28;20221;-76
2023/02/21 06:42:07;;;;;;;29.73;15.47;;;;;;;8.53;100.00;100859.63;5027300;28;20199;-76
2023/02/21 06:44:33;;;;;;;26.07;14.73;;;;;;;8.56;100.00;100855.97;5025603;28;20206;-76
2023/02/21 06:47:01;;;;;;;30.57;15.47;;;;;;;8.57;100.00;100852.38;5024938;28;20217;-75
2023/02/21 06:49:27;;;;;;;31.93;16.73;;;;;;;8.57;100.00;100865.66;5023574;28;20209;-76
2023/02/21 06:51:54;;;;;;;27.00;15.07;;;;;;;8.58;100.00;100870.03;5025564;28;20224;-75
2023/02/21 06:54:20;;;;;;;30.03;15.57;;;;;;;8.60;100.00;100862.81;5026660;28;20583;-77
2023/02/21 06:56:47;;;;;;;32.73;16.43;;;;;;;8.60;100.00;100868.97;5024369;28;20788;-76
2023/02/21 06:59:13;;;;;;;28.97;14.67;;;;;;;8.61;100.00;100864.53;5026140;28;20225;-76
2023/02/21 07:01:40;;;;;;;23.83;14.07;;;;;;;8.60;100.00;100871.63;5026209;28;20288;-76
2023/02/21 07:04:07;;;;;;;27.83;14.50;;;;;;;8.60;100.00;100878.75;5026442;28;20218;-76
2023/02/21 07:06:34;;;;;;;27.97;14.53;;;;;;;8.61;100.00;100878.66;5029239;28;20202;-75
2023/02/21 07:09:00;;;;;;;27.17;14.07;;;;;;;8.63;100.00;100875.94;5027069;28;20222;-76
2023/02/21 07:11:28;;;;;;;24.87;14.07;;;;;;;8.65;100.00;100884.69;5025088;28;20206;-76
2023/02/21 07:13:55;;;;;;;28.00;15.67;;;;;;;8.65;100.00;100882.03;5025039;28;20391;-76
2023/02/21 07:16:22;;;;;;;26.30;13.13;;;;;;;8.66;100.00;100881.09;5029488;28;20305;-77
2023/02/21 07:18:49;;;;;;;26.93;14.53;;;;;;;8.67;100.00;100890.78;5024181;28;20850;-76
2023/02/21 07:21:19;;;;;;;25.70;14.70;;;;;;;8.70;100.00;100898.59;5024661;28;20213;-76
2023/02/21 07:23:47;;;;;;;26.30;14.97;;;;;;;8.71;100.00;100889.69;5025649;28;20230;-74
2023/02/21 07:26:14;;;;;;;26.00;14.77;;;;;;;8.72;100.00;100894.06;5023399;28;20214;-74
2023/02/21 07:28:41;;;;;;;26.03;15.23;;;;;;;8.74;100.00;100892.19;5024871;28;20245;-72
2023/02/21 07:31:09;;;;;;;32.70;15.67;;;;;;;8.76;100.00;100905.38;5027715;28;20210;-73
2023/02/21 07:33:36;;;;;;;25.93;14.67;;;;;;;8.77;100.00;100905.31;5027499;28;20214;-73
2023/02/21 07:36:02;;;;;;;27.17;15.27;;;;;;;8.78;100.00;100903.50;5027864;28;20945;-73
2023/02/21 07:38:31;;;;;;;29.20;15.73;;;;;;;8.77;100.00;100901.78;5027564;28;20240;-72
2023/02/21 07:41:00;;;;;;;32.30;16.27;;;;;;;8.77;100.00;100900.00;5027038;28;20293;-72
2023/02/21 07:43:29;;;;;;;26.57;16.37;;;;;;;8.79;100.00;100907.84;5027526;28;20229;-72
2023/02/21 07:45:55;;;;;;;34.33;18.10;;;;;;;8.79;100.00;100910.50;5025071;28;20221;-73
2023/02/21 07:48:22;;;;;;;31.40;16.43;;;;;;;8.79;100.00;100921.13;5027761;28;20233;-73
2023/02/21 07:50:49;;;;;;;34.20;18.13;;;;;;;8.77;100.00;100918.59;5026489;28;20214;-73
2023/02/21 07:53:16;;;;;;;33.50;17.17;;;;;;;8.78;100.00;100922.09;5023865;28;20476;-73
2023/02/21 07:55:44;;;;;;;34.67;17.37;;;;;;;8.78;100.00;100922.94;5027256;28;20210;-72
2023/02/21 07:58:10;;;;;;;39.10;20.40;;;;;;;8.78;100.00;100925.59;5027348;28;20233;-73
2023/02/21 08:00:37;;;;;;;39.30;18.63;;;;;;;8.78;100.00;100930.91;5025854;28;20213;-74
2023/02/21 08:03:03;;;;;;;34.30;18.73;;;;;;;8.78;100.00;100928.25;5027512;28;20241;-75
2023/02/21 08:05:30;;;;;;;35.40;19.80;;;;;;;8.80;100.00;100933.47;5026162;28;20198;-74
2023/02/21 08:07:56;;;;;;;39.17;19.43;;;;;;;8.78;100.00;100941.53;5027792;28;20226;-73
2023/02/21 08:10:25;;;;;;;38.83;20.40;;;;;;;8.80;100.00;100947.63;5026436;28;21278;-74
2023/02/21 08:12:53;;;;;;;40.40;19.87;;;;;;;8.79;100.00;100948.56;5022890;28;20209;-74
2023/02/21 08:15:19;;;;;;;39.07;20.07;;;;;;;8.81;100.00;100940.50;5026731;28;20213;-75
2023/02/21 08:17:48;;;;;;;33.20;17.93;;;;;;;8.80;100.00;100944.97;5027290;28;20234;-74
2023/02/21 08:20:14;;;;;;;38.97;19.13;;;;;;;8.82;100.00;100936.91;5025996;28;20210;-74
2023/02/21 08:22:41;;;;;;;36.67;19.80;;;;;;;8.84;100.00;100951.84;5026909;28;20237;-74
2023/02/21 08:25:07;;;;;;;37.07;19.40;;;;;;;8.83;100.00;100942.16;5027118;28;20249;-74
2023/02/21 08:27:34;;;;;;;37.27;18.93;;;;;;;8.84;100.00;100946.53;5026004;28;20252;-73
2023/02/21 08:30:02;;;;;;;31.00;16.83;;;;;;;8.86;100.00;100943.78;5026672;28;20203;-74
2023/02/21 08:32:28;;;;;;;32.87;17.43;;;;;;;8.87;100.00;100954.34;5027286;28;20207;-72
2023/02/21 08:34:55;;;;;;;31.53;17.07;;;;;;;8.88;100.00;100956.06;5026175;28;20209;-74
2023/02/21 08:37:21;;;;;;;35.13;17.77;;;;;;;8.89;100.00;100954.28;5027756;28;20230;-74
2023/02/21 08:39:48;;;;;;;31.27;16.90;;;;;;;8.89;100.00;100957.78;5025996;28;20221;-73
2023/02/21 08:42:15;;;;;;;27.33;15.80;;;;;;;8.88;100.00;100955.22;5027516;28;20206;-74
2023/02/21 08:44:44;;;;;;;32.00;16.37;;;;;;;8.88;100.00;100957.88;5026800;28;20233;-74
2023/02/21 08:47:12;;;;;;;28.53;14.37;;;;;;;8.89;100.00;100965.75;5026944;28;20268;-74
2023/02/21 08:49:39;;;;;;;29.90;15.30;;;;;;;8.91;100.00;100973.66;5026887;28;20209;-73
2023/02/21 08:52:06;;;;;;;30.53;16.30;;;;;;;8.93;100.00;100964.66;5026207;28;20206;-73
2023/02/21 08:54:33;;;;;;;27.90;15.10;;;;;;;8.95;100.00;100973.41;5026092;28;20210;-73
2023/02/21 08:57:00;;;;;;;24.10;14.00;;;;;;;8.96;100.00;100964.47;5026259;28;20195;-74
2023/02/21 08:59:29;;;;;;;32.73;16.57;;;;;;;8.95;100.00;100970.75;5027168;28;20206;-74
2023/02/21 09:01:55;;;;;;;30.23;15.77;;;;;;;8.95;100.00;100973.41;5025576;28;20203;-74
2023/02/21 09:04:23;;;;;;;29.70;16.10;;;;;;;8.96;100.00;100975.09;5027064;28;20586;-74
2023/02/21 09:06:51;;;;;;;26.23;14.70;;;;;;;8.99;100.00;100971.44;5025534;28;20583;-74
2023/02/21 09:09:17;;;;;;;27.20;14.67;;;;;;;9.01;100.00;100969.56;5026716;28;20214;-74
2023/02/21 09:11:47;;;;;;;29.57;15.80;;;;;;;9.04;100.00;100974.72;5025718;28;20217;-74
2023/02/21 09:14:13;;;;;;;28.63;14.77;;;;;;;9.09;100.00;100975.34;5026824;28;20213;-74
2023/02/21 09:16:41;;;;;;;28.63;14.53;;;;;;;9.13;100.00;100965.44;5026230;28;20215;-74
2023/02/21 09:19:08;;;;;;;27.13;14.50;;;;;;;9.16;100.00;100967.91;5026416;28;20748;-74
2023/02/21 09:21:44;;;;;;;25.43;14.70;;;;;;;9.20;100.00;100962.34;5025087;28;20689;-74
2023/02/21 09:24:10;;;;;;;22.20;13.43;;;;;;;9.22;100.00;100954.31;5021147;28;20233;-74
2023/02/21 09:26:37;;;;;;;26.27;13.73;;;;;;;9.23;100.00;100948.91;5025702;28;20621;-74
2023/02/21 09:29:04;;;;;;;24.20;13.53;;;;;;;9.25;100.00;100948.84;5029527;28;20242;-74
2023/02/21 09:31:30;;;;;;;22.60;13.73;;;;;;;9.30;100.00;100949.44;5029967;28;20205;-74
2023/02/21 09:33:57;;;;;;;23.60;13.17;;;;;;;9.33;100.00;100949.25;5030366;28;20226;-74
2023/02/21 09:36:23;;;;;;;27.00;15.00;;;;;;;9.34;100.00;100945.66;5030180;28;20214;-74
2023/02/21 09:38:51;;;;;;;25.27;13.90;;;;;;;9.37;100.00;100945.50;5029941;28;20226;-74
2023/02/21 09:41:19;;;;;;;26.23;14.67;;;;;;;9.41;100.00;100944.41;5029319;28;20217;-74
2023/02/21 09:43:48;;;;;;;29.70;15.37;;;;;;;9.44;100.00;100951.38;5030019;28;20226;-74
2023/02/21 09:46:19;;;;;;;28.30;17.03;;;;;;;9.45;100.00;100953.94;5029308;28;20209;-74
2023/02/21 09:48:45;;;;;;;33.37;16.67;;;;;;;9.49;100.00;100952.84;5029712;28;20225;-74
2023/02/21 09:51:13;;;;;;;34.53;17.80;;;;;;;9.50;100.00;100962.50;5029579;28;20210;-74
2023/02/21 09:53:44;;;;;;;31.73;16.80;;;;;;;9.52;100.00;100960.63;5027530;28;20217;-74
2023/02/21 09:56:21;;;;;;;36.97;18.03;;;;;;;9.55;100.00;100971.09;5030154;28;20229;-74
2023/02/21 09:58:49;;;;;;;29.53;16.03;;;;;;;9.58;100.00;100970.94;5028541;28;20221;-74
2023/02/21 10:01:25;;;;;;;32.47;18.43;;;;;;;9.61;100.00;100960.16;5030572;28;20206;-74
2023/02/21 10:04:04;;;;;;;31.13;16.90;;;;;;;9.62;100.00;100959.22;5028611;28;20227;-74
2023/02/21 10:06:39;;;;;;;30.57;16.83;;;;;;;9.65;100.00;100969.69;5028315;28;20316;-74
2023/02/21 10:09:18;;;;;;;28.40;14.47;;;;;;;9.68;100.00;100961.50;5029426;28;20234;-74
2023/02/21 10:11:57;;;;;;;29.53;16.73;;;;;;;9.68;100.00;100965.97;5028082;28;20221;-74
2023/02/21 10:14:29;;;;;;;28.73;15.70;;;;;;;9.70;100.00;100969.41;5029256;28;20198;-74
2023/02/21 10:17:04;;;;;;;30.73;16.37;;;;;;;9.74;100.00;100971.81;5028256;28;20212;-74
2023/02/21 10:19:35;;;;;;;29.13;16.23;;;;;;;9.76;100.00;100969.09;5029789;28;20224;-74
2023/02/21 10:22:10;;;;;;;29.23;15.03;;;;;;;9.81;100.00;100976.81;5027815;28;20213;-74
2023/02/21 10:24:37;;;;;;;31.63;14.83;;;;;;;9.82;100.00;100975.88;5028585;28;20233;-74
2023/02/21 10:27:07;;;;;;;24.00;14.47;;;;;;;9.84;100.00;100987.28;5028535;28;20233;-74
2023/02/21 10:29:43;;;;;;;28.03;14.87;;;;;;;9.84;100.00;100984.63;5028134;28;20202;-74
2023/02/21 10:32:10;;;;;;;28.00;14.93;;;;;;;9.86;100.00;100980.06;5024950;28;20202;-75
2023/02/21 10:34:36;;;;;;;25.00;13.30;;;;;;;9.90;100.00;100978.97;5028019;28;20205;-73
2023/02/21 10:37:11;;;;;;;26.67;14.57;;;;;;;9.93;100.00;100984.97;5024757;28;20602;-74
2023/02/21 10:39:43;;;;;;;22.17;14.17;;;;;;;9.99;100.00;100984.66;5022456;28;20210;-73
2023/02/21 10:42:18;;;;;;;22.50;13.20;;;;;;;10.02;100.00;100981.81;5026573;28;20672;-74
2023/02/21 10:44:45;;;;;;;23.73;14.10;;;;;;;10.05;100.00;100981.63;5028131;28;20233;-74
2023/02/21 10:47:18;;;;;;;19.67;13.33;;;;;;;10.10;100.00;100978.72;5027731;28;20241;-74
2023/02/21 10:49:49;;;;;;;24.90;14.10;;;;;;;10.10;100.00;100989.34;5028335;28;20211;-74
2023/02/21 10:52:19;;;;;;;25.00;14.23;;;;;;;10.15;100.00;100984.66;5027913;28;20232;-74
2023/02/21 10:55:01;;;;;;;23.00;13.23;;;;;;;10.25;100.00;100987.66;5030021;28;20202;-74
2023/02/21 10:57:31;;;;;;;22.30;13.27;;;;;;;10.32;100.00;100979.25;5025436;28;20225;-74
2023/02/21 10:59:58;;;;;;;27.53;15.87;;;;;;;10.38;100.00;100994.91;5027115;28;20230;-74
2023/02/21 11:02:31;;;;;;;25.70;15.47;;;;;;;10.44;100.00;100996.31;5026774;28;20225;-75
2023/02/21 11:05:09;;;;;;;21.83;13.37;;;;;;;10.52;100.00;100986.09;5027415;28;20241;-75
2023/02/21 11:07:36;;;;;;;21.17;13.00;;;;;;;10.56;100.00;100987.66;5025860;28;20234;-75
2023/02/21 11:10:23;;;;;;;20.90;13.03;;;;;;;10.61;100.00;100984.69;5027973;28;20662;-74
2023/02/21 11:13:01;;;;;;;18.40;12.17;;;;;;;10.60;99.97;100993.63;5027794;28;20214;-74
2023/02/21 11:15:28;;;;;;;19.60;11.87;;;;;;;10.62;99.62;100986.41;5025662;28;20849;-74
2023/02/21 11:18:04;;;;;;;19.83;11.50;;;;;;;10.67;99.34;100985.22;5027864;28;20230;-74
2023/02/21 11:20:31;;;;;;;19.40;12.47;;;;;;;10.68;98.75;100986.06;5026171;28;20207;-74
2023/02/21 11:22:58;;;;;;;18.97;12.40;;;;;;;10.70;98.06;100977.03;5027402;28;20260;-75
2023/02/21 11:25:27;;;;;;;20.57;12.87;;;;;;;10.74;97.84;100983.91;5027852;28;20416;-75
2023/02/21 11:28:07;;;;;;;20.83;12.70;;;;;;;10.79;97.72;100978.28;5028393;28;20278;-75
2023/02/21 11:30:36;;;;;;;19.53;12.40;;;;;;;10.85;97.49;100985.06;5027562;28;20205;-75
2023/02/21 11:33:04;;;;;;;16.47;11.03;;;;;;;10.90;97.21;100977.69;5026864;28;20204;-74
2023/02/21 11:35:35;;;;;;;20.50;11.83;;;;;;;10.93;96.68;100990.78;5027873;28;20208;-75
2023/02/21 11:38:04;;;;;;;14.27;10.07;;;;;;;10.96;96.01;100978.16;5026978;28;20269;-74
2023/02/21 11:40:40;;;;;;;17.03;11.73;;;;;;;11.00;95.80;100982.34;5025003;28;20755;-74
2023/02/21 11:43:25;;;;;;;20.00;11.87;;;;;;;11.05;95.53;100982.94;5024414;28;20206;-74
2023/02/21 11:46:18;;;;;;;16.93;11.00;;;;;;;11.08;94.85;100977.44;5024811;28;20567;-75
2023/02/21 11:48:54;;;;;;;13.73;9.57;;;;;;;11.10;94.47;100982.69;5021610;28;20232;-74
2023/02/21 11:51:37;;;;;;;14.23;9.53;;;;;;;11.13;93.81;100982.47;5027017;28;20311;-75
2023/02/21 11:54:05;;;;;;;13.30;9.33;;;;;;;11.18;93.61;100987.53;5026775;28;20713;-75
2023/02/21 11:56:42;;;;;;;14.07;9.67;;;;;;;11.16;92.53;100982.28;5027277;28;20253;-75
2023/02/21 11:59:24;;;;;;;14.53;9.73;;;;;;;11.16;92.06;100989.44;5026788;28;20262;-75
2023/02/21 12:02:07;;;;;;;14.00;9.50;;;;;;;11.14;91.71;100982.38;5026043;28;20213;-74
2023/02/21 12:04:52;;;;;;;13.50;10.13;;;;;;;11.18;91.89;100983.06;5026939;28;20222;-74
2023/02/21 12:07:28;;;;;;;14.63;10.37;;;;;;;11.23;91.75;100980.13;5024959;28;20221;-75
2023/02/21 12:10:02;;;;;;;13.20;10.27;;;;;;;11.26;91.55;100983.47;5026158;28;20228;-75
2023/02/21 12:12:39;;;;;;;11.97;9.00;;;;;;;11.30;91.01;100973.44;5027529;28;20211;-75
2023/02/21 12:15:21;;;;;;;13.80;9.20;;;;;;;11.33;91.27;100971.44;5023829;28;20212;-74
2023/02/21 12:18:25;;;;;;;11.03;8.53;;;;;;;11.39;91.05;100972.91;5026672;28;20814;-75
2023/02/21 12:21:07;;;;;;;15.67;9.40;;;;;;;11.39;90.43;100968.41;5025683;28;20209;-75
2023/02/21 12:23:45;;;;;;;11.50;8.90;;;;;;;11.44;90.55;100971.66;5026346;28;20203;-75
2023/02/21 12:26:27;;;;;;;13.53;9.63;;;;;;;11.41;89.62;100961.19;5025887;28;20625;-75
2023/02/21 12:29:02;;;;;;;13.20;9.47;;;;;;;11.42;89.30;100964.72;5026084;28;20263;-75
2023/02/21 12:31:43;;;;;;;11.23;8.90;;;;;;;11.45;89.36;100968.06;5024866;28;20215;-75
2023/02/21 12:34:28;;;;;;;11.00;9.03;;;;;;;11.47;88.68;100968.78;5025268;28;20202;-74
2023/02/21 12:37:05;;;;;;;12.13;8.67;;;;;;;11.49;88.62;100971.34;5025859;28;20684;-75
2023/02/21 12:39:51;;;;;;;12.27;8.67;;;;;;;11.48;87.68;100972.31;5025878;28;20650;-73
2023/02/21 12:42:32;;;;;;;10.67;8.10;;;;;;;11.46;87.38;100963.56;5022245;28;20669;-73
2023/02/21 12:45:12;;;;;;;11.07;8.43;;;;;;;11.45;86.94;100965.38;5026305;28;20726;-73
2023/02/21 12:47:46;;;;;;;11.53;8.40;;;;;;;11.45;86.68;100961.84;5024923;28;20274;-73
2023/02/21 12:50:16;;;;;;;11.27;7.97;;;;;;;11.43;86.76;100953.09;5024210;28;20209;-73
2023/02/21 12:52:57;;;;;;;11.97;8.93;;;;;;;11.41;86.54;100957.66;5025556;28;20208;-72
2023/02/21 12:55:26;;;;;;;9.77;7.83;;;;;;;11.40;86.44;100948.81;5025328;28;20224;-73
2023/02/21 12:57:56;;;;;;;11.77;8.07;;;;;;;11.39;86.04;100948.91;5024145;28;20224;-73
2023/02/21 13:00:25;;;;;;;11.80;8.63;;;;;;;11.36;86.07;100949.94;5025672;28;20200;-74
2023/02/21 13:03:05;;;;;;;11.70;8.13;;;;;;;11.35;86.12;100950.03;5020617;28;20217;-75
2023/02/21 13:05:38;;;;;;;12.10;8.47;;;;;;;11.33;85.96;100944.78;5029005;28;20487;-75
2023/02/21 13:08:11;;;;;;;11.90;8.07;;;;;;;11.32;86.15;100945.75;5028840;28;20688;-71
2023/02/21 13:10:48;;;;;;;11.13;7.93;;;;;;;11.30;85.46;100938.78;5026781;28;20220;-67
2023/02/21 13:13:21;;;;;;;10.27;6.90;;;;;;;11.31;85.60;100936.03;5028044;28;20224;-69
2023/02/21 13:15:49;;;;;;;10.60;8.00;;;;;;;11.30;85.37;100944.13;5026025;28;20202;-69
2023/02/21 13:18:21;;;;;;;11.53;8.37;;;;;;;11.30;85.31;100944.97;5028220;28;20232;-68
2023/02/21 13:20:55;;;;;;;9.80;7.87;;;;;;;11.30;85.50;100936.97;5027902;28;20797;-70
2023/02/21 13:24:02;;;;;;;12.00;8.10;;;;;;;11.32;85.66;100935.06;5026200;28;20207;-68
2023/02/21 13:26:58;;;;;;;11.63;8.73;;;;;;;11.35;85.48;100934.88;5026557;28;20209;-68
2023/02/21 13:29:27;;;;;;;10.47;8.03;;;;;;;11.36;85.61;100941.06;5024095;28;20210;-71
2023/02/21 13:32:00;;;;;;;10.90;8.27;;;;;;;11.38;85.49;100928.50;5027600;28;20204;-69
2023/02/21 13:34:35;;;;;;;10.97;8.10;;;;;;;11.41;85.23;100941.66;5021948;28;20205;-69
2023/02/21 13:37:05;;;;;;;10.73;8.03;;;;;;;11.44;85.00;100928.13;5027585;28;20572;-69
2023/02/21 13:39:36;;;;;;;10.33;8.10;;;;;;;11.46;85.13;100934.25;5025170;28;20209;-70